Terminal Aerodrome Forecast
Issued by NWS

Current Version | Previous Version | Text Only | Print | Product List | Glossary On
Versions: 1 2 3 4 5 6 7 8 9 10 11 12 13 14 15 16 17 18 19 20 21 22 23 24 25 26 27 28
000
FTUS45 KSLC 082020 AAA
TAFPVU
TAF AMD
KPVU 082020Z 0820/0918 VRB04KT 6SM -SN OVC040
     FM082300 VRB04KT 4SM -SN OVC020
     FM090300 VRB04KT 2SM -SN BR SCT007 BKN015
      AMD LTD TO CLD VIS AND WIND=

USA.gov is the U.S. government's official web portal to all federal, state and local government web resources and services.